createdAt,value
2017-10-22T00:00:48.095Z,0
2017-10-22T00:02:10.621Z,0
2017-10-22T00:03:33.240Z,0
2017-10-22T00:04:55.542Z,0
2017-10-22T00:06:17.485Z,0
2017-10-22T00:07:39.020Z,0
2017-10-22T00:09:01.194Z,0
2017-10-22T00:10:23.435Z,0
2017-10-22T00:11:45.267Z,0
2017-10-22T00:13:07.155Z,0
2017-10-22T00:14:29.361Z,0
2017-10-22T00:15:50.981Z,0
2017-10-22T00:17:12.893Z,0
2017-10-22T00:18:35.064Z,0
2017-10-22T00:19:57.605Z,0
2017-10-22T00:21:19.785Z,0
2017-10-22T00:22:41.963Z,0
2017-10-22T00:24:04.155Z,0
2017-10-22T00:25:26.329Z,0
2017-10-22T00:26:48.525Z,0
2017-10-22T00:28:10.389Z,0
2017-10-22T00:29:32.306Z,0
2017-10-22T00:30:54.593Z,0
2017-10-22T00:32:16.848Z,0
2017-10-22T00:33:39.366Z,0
2017-10-22T00:35:01.555Z,0
2017-10-22T00:36:23.405Z,0
2017-10-22T00:37:44.925Z,0
2017-10-22T00:39:07.104Z,0
2017-10-22T00:40:29.039Z,0
2017-10-22T00:41:50.215Z,0
2017-10-22T00:43:12.417Z,0
2017-10-22T00:44:33.935Z,0
2017-10-22T00:45:56.600Z,0
2017-10-22T00:47:18.804Z,0
2017-10-22T00:48:40.330Z,0
2017-10-22T00:50:01.183Z,0
2017-10-22T00:51:23.375Z,0
2017-10-22T00:52:45.543Z,0
2017-10-22T00:54:07.426Z,0
2017-10-22T00:55:29.633Z,0
2017-10-22T00:56:51.810Z,0
2017-10-22T00:58:14.335Z,0
2017-10-22T00:59:36.632Z,0
2017-10-22T01:00:58.826Z,0
2017-10-22T01:02:21.000Z,0
2017-10-22T01:03:42.217Z,0
2017-10-22T01:05:04.060Z,0
2017-10-22T01:06:25.895Z,0
2017-10-22T01:07:48.195Z,0
2017-10-22T01:09:10.371Z,0
2017-10-22T01:10:31.865Z,0
2017-10-22T01:11:53.715Z,0
2017-10-22T01:13:15.870Z,0
2017-10-22T01:14:37.734Z,0
2017-10-22T01:15:59.572Z,0
2017-10-22T01:17:21.166Z,0
2017-10-22T01:18:43.050Z,0
2017-10-22T01:20:04.897Z,0
2017-10-22T01:21:27.035Z,0
2017-10-22T01:22:48.552Z,0
2017-10-22T01:24:10.074Z,0
2017-10-22T01:25:31.921Z,0
2017-10-22T01:26:53.745Z,0
2017-10-22T01:28:15.246Z,0
2017-10-22T01:29:36.763Z,0
2017-10-22T01:30:58.995Z,0
2017-10-22T01:32:21.524Z,0
2017-10-22T01:33:43.375Z,0
2017-10-22T01:35:05.228Z,0
2017-10-22T01:36:27.424Z,0
2017-10-22T01:37:49.264Z,0
2017-10-22T01:39:10.781Z,0
2017-10-22T01:40:32.959Z,0
2017-10-22T01:41:54.465Z,0
2017-10-22T01:43:16.222Z,0
2017-10-22T01:44:38.745Z,0
2017-10-22T01:45:59.968Z,0
2017-10-22T01:47:22.230Z,0
2017-10-22T01:48:44.751Z,0
2017-10-22T01:50:07.074Z,0
2017-10-22T01:51:28.924Z,0
2017-10-22T01:52:50.433Z,0
2017-10-22T01:54:12.621Z,0
2017-10-22T01:55:34.795Z,0
2017-10-22T01:56:57.016Z,0
2017-10-22T01:58:19.215Z,0
2017-10-22T01:59:40.738Z,0
2017-10-22T02:01:02.602Z,0
2017-10-22T02:02:24.479Z,0
2017-10-22T02:03:46.292Z,0
2017-10-22T02:05:09.044Z,0
2017-10-22T02:06:30.590Z,0
2017-10-22T02:07:52.754Z,0
2017-10-22T02:09:14.605Z,0
2017-10-22T02:10:36.122Z,0
2017-10-22T02:11:58.644Z,0
2017-10-22T02:13:20.161Z,0
2017-10-22T02:14:42.701Z,0
2017-10-22T02:16:04.245Z,0
2017-10-22T02:17:26.434Z,0
2017-10-22T02:18:48.630Z,0
2017-10-22T02:20:10.849Z,0
2017-10-22T02:21:32.734Z,0
2017-10-22T02:22:54.917Z,0
2017-10-22T02:24:16.802Z,0
2017-10-22T02:25:38.348Z,0
2017-10-22T02:26:59.895Z,0
2017-10-22T02:28:21.746Z,0
2017-10-22T02:29:43.931Z,0
2017-10-22T02:31:06.428Z,0
2017-10-22T02:32:29.013Z,0
2017-10-22T02:33:51.182Z,0
2017-10-22T02:35:13.156Z,0
2017-10-22T02:36:34.998Z,0
2017-10-22T02:37:56.839Z,0
2017-10-22T02:39:18.752Z,0
2017-10-22T02:40:39.947Z,0
2017-10-22T02:42:02.099Z,0
2017-10-22T02:43:24.702Z,0
2017-10-22T02:44:47.235Z,0
2017-10-22T02:46:09.205Z,0
2017-10-22T02:47:31.050Z,0
2017-10-22T02:48:52.249Z,0
2017-10-22T02:50:13.774Z,0
2017-10-22T02:51:36.291Z,0
2017-10-22T02:52:58.206Z,0
2017-10-22T02:54:20.036Z,0
2017-10-22T02:55:41.551Z,0
2017-10-22T02:57:04.154Z,0
2017-10-22T02:58:26.384Z,0
2017-10-22T02:59:48.532Z,0
2017-10-22T03:01:10.717Z,0
2017-10-22T03:02:32.902Z,0
2017-10-22T03:03:55.103Z,0
2017-10-22T03:05:16.616Z,0
2017-10-22T03:06:38.453Z,0
2017-10-22T03:08:00.088Z,0
2017-10-22T03:09:21.950Z,0
2017-10-22T03:10:44.792Z,0
2017-10-22T03:12:06.966Z,0
2017-10-22T03:13:29.244Z,0
2017-10-22T03:14:50.761Z,0
2017-10-22T03:16:12.963Z,0
2017-10-22T03:17:34.794Z,0
2017-10-22T03:18:56.306Z,0
2017-10-22T03:20:18.587Z,0
2017-10-22T03:21:41.153Z,0
2017-10-22T03:23:02.996Z,0
2017-10-22T03:24:24.652Z,0
2017-10-22T03:25:46.166Z,0
2017-10-22T03:27:08.336Z,0
2017-10-22T03:28:30.191Z,0
2017-10-22T03:29:52.694Z,0
2017-10-22T03:31:14.557Z,0
2017-10-22T03:32:36.416Z,0
2017-10-22T03:33:58.279Z,0
2017-10-22T03:35:20.443Z,0
2017-10-22T03:36:42.606Z,0
2017-10-22T03:38:05.287Z,0
2017-10-22T03:39:27.173Z,0
2017-10-22T03:40:49.069Z,0
2017-10-22T03:42:11.605Z,0
2017-10-22T03:43:33.868Z,0
2017-10-22T03:44:56.384Z,0
2017-10-22T03:46:18.705Z,0
2017-10-22T03:47:40.875Z,0
2017-10-22T03:49:02.484Z,0
2017-10-22T03:50:25.014Z,0
2017-10-22T03:51:46.643Z,0
2017-10-22T03:53:09.238Z,0
2017-10-22T03:54:31.740Z,0
2017-10-22T03:55:54.014Z,0
2017-10-22T03:57:16.179Z,0
2017-10-22T03:58:37.682Z,0
2017-10-22T03:59:59.944Z,0
2017-10-22T04:01:21.452Z,0
2017-10-22T04:02:43.969Z,0
2017-10-22T04:04:05.494Z,0
2017-10-22T04:05:27.703Z,0
2017-10-22T04:06:49.874Z,0
2017-10-22T04:08:11.373Z,0
2017-10-22T04:09:33.294Z,0
2017-10-22T04:10:55.065Z,0
2017-10-22T04:12:16.649Z,0
2017-10-22T04:13:38.866Z,0
2017-10-22T04:15:00.745Z,0
2017-10-22T04:16:22.596Z,0
2017-10-22T04:17:44.436Z,0
2017-10-22T04:19:06.664Z,0
2017-10-22T04:20:28.535Z,0
2017-10-22T04:21:50.042Z,0
2017-10-22T04:23:12.575Z,0
2017-10-22T04:24:34.536Z,0
2017-10-22T04:25:56.441Z,0
2017-10-22T04:27:17.933Z,0
2017-10-22T04:28:40.113Z,0
2017-10-22T04:30:01.948Z,0
2017-10-22T04:31:23.804Z,0
2017-10-22T04:32:45.875Z,0
2017-10-22T04:34:07.836Z,0
2017-10-22T04:35:29.346Z,0
2017-10-22T04:36:51.183Z,0
2017-10-22T04:38:13.707Z,0
2017-10-22T04:39:35.297Z,0
2017-10-22T04:40:57.485Z,0
2017-10-22T04:42:18.992Z,0
2017-10-22T04:43:41.085Z,0
2017-10-22T04:45:03.006Z,0
2017-10-22T04:46:24.853Z,0
2017-10-22T04:47:46.370Z,0
2017-10-22T04:49:08.204Z,0
2017-10-22T04:50:30.526Z,0
2017-10-22T04:51:51.694Z,0
2017-10-22T04:53:14.194Z,0
2017-10-22T04:54:36.648Z,0
2017-10-22T04:55:58.486Z,0
2017-10-22T04:57:20.654Z,0
2017-10-22T04:58:42.161Z,0
2017-10-22T05:00:04.014Z,0
2017-10-22T05:01:26.529Z,0
2017-10-22T05:02:48.084Z,0
2017-10-22T05:04:10.358Z,0
2017-10-22T05:05:32.500Z,0
2017-10-22T05:06:54.678Z,0
2017-10-22T05:08:17.205Z,0
2017-10-22T05:09:39.412Z,0
2017-10-22T05:11:01.512Z,0
2017-10-22T05:12:24.050Z,0
2017-10-22T05:13:46.344Z,0
2017-10-22T05:15:08.523Z,0
2017-10-22T05:16:30.049Z,0
2017-10-22T05:17:51.566Z,0
2017-10-22T05:19:13.764Z,0
2017-10-22T05:20:35.264Z,0
2017-10-22T05:21:57.440Z,0
2017-10-22T05:23:19.945Z,0
2017-10-22T05:24:41.805Z,0
2017-10-22T05:26:03.674Z,0
2017-10-22T05:27:26.543Z,0
2017-10-22T05:28:48.406Z,0
2017-10-22T05:30:10.584Z,0
2017-10-22T05:31:32.431Z,0
2017-10-22T05:32:54.254Z,0
2017-10-22T05:34:16.094Z,0
2017-10-22T05:35:37.952Z,0
2017-10-22T05:36:59.122Z,0
2017-10-22T05:38:21.552Z,0
2017-10-22T05:39:43.063Z,0
2017-10-22T05:41:05.234Z,0
2017-10-22T05:42:27.435Z,0
2017-10-22T05:43:49.666Z,0
2017-10-22T05:45:11.511Z,0
2017-10-22T05:46:33.726Z,0
2017-10-22T05:47:55.974Z,0
2017-10-22T05:49:17.564Z,0
2017-10-22T05:50:40.165Z,0
2017-10-22T05:52:02.364Z,0
2017-10-22T05:53:23.887Z,0
2017-10-22T05:54:46.162Z,0
2017-10-22T05:56:08.331Z,5
2017-10-22T05:57:30.508Z,5
2017-10-22T05:58:52.085Z,5
2017-10-22T06:00:14.522Z,5
2017-10-22T06:01:36.453Z,5
2017-10-22T06:02:58.286Z,5
2017-10-22T06:04:20.783Z,10
2017-10-22T06:05:43.453Z,10
2017-10-22T06:07:05.105Z,10
2017-10-22T06:08:27.294Z,10
2017-10-22T06:09:48.482Z,15
2017-10-22T06:11:10.263Z,15
2017-10-22T06:12:32.776Z,15
2017-10-22T06:13:55.281Z,15
2017-10-22T06:15:16.895Z,20
2017-10-22T06:16:39.106Z,20
2017-10-22T06:18:01.301Z,20
2017-10-22T06:19:23.191Z,25
2017-10-22T06:20:45.354Z,25
2017-10-22T06:22:07.506Z,25
2017-10-22T06:23:29.348Z,25
2017-10-22T06:24:51.532Z,30
2017-10-22T06:26:13.752Z,35
2017-10-22T06:27:35.269Z,40
2017-10-22T06:28:57.780Z,45
2017-10-22T06:30:19.750Z,45
2017-10-22T06:31:41.760Z,45
2017-10-22T06:33:03.960Z,40
2017-10-22T06:34:25.794Z,35
2017-10-22T06:35:47.421Z,35
2017-10-22T06:37:09.624Z,35
2017-10-22T06:38:32.152Z,35
2017-10-22T06:39:53.998Z,35
2017-10-22T06:41:16.175Z,35
2017-10-22T06:42:38.724Z,35
2017-10-22T06:44:00.901Z,35
2017-10-22T06:45:23.555Z,40
2017-10-22T06:46:45.737Z,45
2017-10-22T06:48:08.268Z,55
2017-10-22T06:49:30.732Z,65
2017-10-22T06:50:52.645Z,70
2017-10-22T06:52:14.490Z,80
2017-10-22T06:53:36.348Z,80
2017-10-22T06:54:58.872Z,80
2017-10-22T06:56:21.045Z,85
2017-10-22T06:57:43.562Z,90
2017-10-22T06:59:05.764Z,90
2017-10-22T07:00:28.303Z,90
2017-10-22T07:01:49.821Z,90
2017-10-22T07:03:12.120Z,90
2017-10-22T07:04:34.305Z,85
2017-10-22T07:05:56.414Z,85
2017-10-22T07:07:18.263Z,85
2017-10-22T07:08:40.467Z,90
2017-10-22T07:10:03.009Z,90
2017-10-22T07:11:24.912Z,95
2017-10-22T07:12:46.787Z,100
2017-10-22T07:14:08.695Z,100
2017-10-22T07:15:30.925Z,100
2017-10-22T07:16:53.532Z,100
2017-10-22T07:18:15.741Z,100
2017-10-22T07:19:36.921Z,100
2017-10-22T07:20:59.107Z,100
2017-10-22T07:22:21.312Z,100
2017-10-22T07:23:43.183Z,105
2017-10-22T07:25:05.385Z,105
2017-10-22T07:26:27.581Z,105
2017-10-22T07:27:50.130Z,105
2017-10-22T07:29:12.000Z,105
2017-10-22T07:30:33.854Z,110
2017-10-22T07:31:56.060Z,100
2017-10-22T07:33:18.043Z,100
2017-10-22T07:34:40.254Z,100
2017-10-22T07:36:02.203Z,100
2017-10-22T07:37:24.103Z,100
2017-10-22T07:38:45.943Z,95
2017-10-22T07:40:07.464Z,95
2017-10-22T07:41:29.988Z,95
2017-10-22T07:42:52.505Z,95
2017-10-22T07:44:14.368Z,90
2017-10-22T07:45:36.673Z,90
2017-10-22T07:46:58.569Z,90
2017-10-22T07:48:20.732Z,90
2017-10-22T07:49:43.334Z,90
2017-10-22T07:51:05.869Z,90
2017-10-22T07:52:28.404Z,90
2017-10-22T07:53:50.585Z,90
2017-10-22T07:55:13.175Z,85
2017-10-22T07:56:35.021Z,80
2017-10-22T07:57:56.555Z,75
2017-10-22T07:59:18.763Z,70
2017-10-22T08:00:40.642Z,65
2017-10-22T08:02:02.167Z,60
2017-10-22T08:03:24.005Z,60
2017-10-22T08:04:46.180Z,65
2017-10-22T08:06:08.070Z,65
2017-10-22T08:07:29.932Z,65
2017-10-22T08:08:51.774Z,65
2017-10-22T08:10:13.976Z,60
2017-10-22T08:11:36.182Z,60
2017-10-22T08:12:58.055Z,55
2017-10-22T08:14:19.969Z,55
2017-10-22T08:15:42.146Z,50
2017-10-22T08:17:05.023Z,50
2017-10-22T08:18:27.232Z,55
2017-10-22T08:19:48.775Z,40
2017-10-22T08:21:11.324Z,40
2017-10-22T08:22:33.841Z,50
2017-10-22T08:23:55.704Z,45
2017-10-22T08:25:17.926Z,55
2017-10-22T08:26:39.448Z,55
2017-10-22T08:28:00.975Z,65
2017-10-22T08:29:23.493Z,65
2017-10-22T08:30:45.354Z,80
2017-10-22T08:32:07.213Z,75
2017-10-22T08:33:29.414Z,80
2017-10-22T08:34:51.613Z,75
2017-10-22T08:36:13.796Z,75
2017-10-22T08:37:36.046Z,75
2017-10-22T08:38:57.893Z,75
2017-10-22T08:40:20.055Z,75
2017-10-22T08:41:42.632Z,75
2017-10-22T08:43:04.824Z,75
2017-10-22T08:44:26.860Z,80
2017-10-22T08:45:49.075Z,80
2017-10-22T08:47:11.395Z,85
2017-10-22T08:48:33.586Z,95
2017-10-22T08:49:56.146Z,90
2017-10-22T08:51:18.048Z,100
2017-10-22T08:52:40.442Z,100
2017-10-22T08:54:02.904Z,100
2017-10-22T08:55:25.483Z,100
2017-10-22T08:56:47.415Z,100
2017-10-22T08:58:09.952Z,100
2017-10-22T08:59:32.534Z,90
2017-10-22T09:00:55.048Z,95
2017-10-22T09:02:17.597Z,110
2017-10-22T09:03:40.134Z,125
2017-10-22T09:05:02.350Z,145
2017-10-22T09:06:24.607Z,140
2017-10-22T09:07:46.785Z,170
2017-10-22T09:09:08.314Z,155
2017-10-22T09:10:30.976Z,165
2017-10-22T09:11:53.534Z,155
2017-10-22T09:13:15.852Z,170
2017-10-22T09:14:37.725Z,180
2017-10-22T09:15:59.656Z,205
2017-10-22T09:17:21.875Z,195
2017-10-22T09:18:44.125Z,185
2017-10-22T09:20:06.673Z,175
2017-10-22T09:21:28.571Z,180
2017-10-22T09:22:50.764Z,180
2017-10-22T09:24:13.027Z,195
2017-10-22T09:25:35.604Z,190
2017-10-22T09:26:57.494Z,185
2017-10-22T09:28:19.661Z,170
2017-10-22T09:29:41.686Z,160
2017-10-22T09:31:04.302Z,150
2017-10-22T09:32:26.862Z,150
2017-10-22T09:33:49.076Z,145
2017-10-22T09:35:11.801Z,120
2017-10-22T09:36:34.026Z,115
2017-10-22T09:37:56.306Z,130
2017-10-22T09:39:18.824Z,125
2017-10-22T09:40:40.774Z,155
2017-10-22T09:42:03.375Z,160
2017-10-22T09:43:25.896Z,175
2017-10-22T09:44:48.478Z,185
2017-10-22T09:46:11.019Z,170
2017-10-22T09:47:33.574Z,150
2017-10-22T09:48:55.420Z,135
2017-10-22T09:50:17.995Z,145
2017-10-22T09:51:40.686Z,200
2017-10-22T09:53:03.228Z,190
2017-10-22T09:54:25.526Z,175
2017-10-22T09:55:47.563Z,135
2017-10-22T09:57:09.910Z,115
2017-10-22T09:58:32.127Z,110
2017-10-22T09:59:53.668Z,135
2017-10-22T10:01:16.224Z,135
2017-10-22T10:02:38.091Z,110
2017-10-22T10:03:59.946Z,110
2017-10-22T10:05:22.178Z,125
2017-10-22T10:06:44.841Z,140
2017-10-22T10:08:07.404Z,140
2017-10-22T10:09:29.956Z,145
2017-10-22T10:10:52.154Z,120
2017-10-22T10:12:14.361Z,110
2017-10-22T10:13:35.890Z,110
2017-10-22T10:14:58.153Z,115
2017-10-22T10:16:20.338Z,120
2017-10-22T10:17:42.565Z,120
2017-10-22T10:19:05.125Z,115
2017-10-22T10:20:27.037Z,120
2017-10-22T10:21:49.593Z,115
2017-10-22T10:23:12.274Z,110
2017-10-22T10:24:34.222Z,105
2017-10-22T10:25:56.770Z,105
2017-10-22T10:27:18.976Z,85
2017-10-22T10:28:41.223Z,70
2017-10-22T10:30:03.088Z,65
2017-10-22T10:31:25.318Z,70
2017-10-22T10:32:47.564Z,65
2017-10-22T10:34:09.780Z,65
2017-10-22T10:35:31.983Z,65
2017-10-22T10:36:53.873Z,75
2017-10-22T10:38:16.041Z,70
2017-10-22T10:39:38.554Z,80
2017-10-22T10:41:00.766Z,80
2017-10-22T10:42:23.016Z,85
2017-10-22T10:43:45.280Z,85
2017-10-22T10:45:07.865Z,85
2017-10-22T10:46:30.576Z,85
2017-10-22T10:47:52.454Z,85
2017-10-22T10:49:15.023Z,85
2017-10-22T10:50:37.566Z,90
2017-10-22T10:52:00.154Z,100
2017-10-22T10:53:22.696Z,115
2017-10-22T10:54:45.305Z,110
2017-10-22T10:56:07.942Z,120
2017-10-22T10:57:30.640Z,125
2017-10-22T10:58:52.921Z,125
2017-10-22T11:00:15.578Z,135
2017-10-22T11:01:38.122Z,140
2017-10-22T11:03:00.388Z,155
2017-10-22T11:04:22.914Z,165
2017-10-22T11:05:45.583Z,165
2017-10-22T11:07:07.969Z,205
2017-10-22T11:08:30.597Z,210
2017-10-22T11:09:52.473Z,205
2017-10-22T11:11:15.093Z,210
2017-10-22T11:12:37.732Z,215
2017-10-22T11:13:59.962Z,210
2017-10-22T11:15:22.535Z,190
2017-10-22T11:16:44.752Z,210
2017-10-22T11:18:07.486Z,185
2017-10-22T11:19:29.803Z,165
2017-10-22T11:20:52.001Z,155
2017-10-22T11:22:13.875Z,165
2017-10-22T11:23:36.084Z,185
2017-10-22T11:24:58.678Z,185
2017-10-22T11:26:20.895Z,205
2017-10-22T11:27:43.509Z,205
2017-10-22T11:29:06.497Z,175
2017-10-22T11:30:28.786Z,210
2017-10-22T11:31:51.436Z,205
2017-10-22T11:33:14.011Z,195
2017-10-22T11:34:36.662Z,200
2017-10-22T11:35:59.254Z,185
2017-10-22T11:37:20.853Z,200
2017-10-22T11:38:43.415Z,180
2017-10-22T11:40:05.755Z,165
2017-10-22T11:41:28.344Z,160
2017-10-22T11:42:50.280Z,165
2017-10-22T11:44:12.837Z,155
2017-10-22T11:45:35.492Z,160
2017-10-22T11:46:58.199Z,165
2017-10-22T11:48:20.800Z,180
2017-10-22T11:49:43.452Z,160
2017-10-22T11:51:05.377Z,160
2017-10-22T11:52:27.219Z,170
2017-10-22T11:53:49.450Z,160
2017-10-22T11:55:11.655Z,165
2017-10-22T11:56:33.854Z,155
2017-10-22T11:57:55.767Z,145
2017-10-22T11:59:18.017Z,125
2017-10-22T12:00:40.584Z,140
2017-10-22T12:02:02.814Z,175
2017-10-22T12:03:25.159Z,150
2017-10-22T12:04:47.377Z,155
2017-10-22T12:06:09.705Z,165
2017-10-22T12:07:31.992Z,175
2017-10-22T12:08:53.878Z,170
2017-10-22T12:10:16.071Z,160
2017-10-22T12:11:38.296Z,150
2017-10-22T12:13:00.543Z,140
2017-10-22T12:14:22.827Z,135
2017-10-22T12:15:45.389Z,135
2017-10-22T12:17:07.976Z,150
2017-10-22T12:18:30.223Z,180
2017-10-22T12:19:52.115Z,165
2017-10-22T12:21:14.347Z,155
2017-10-22T12:22:37.003Z,150
2017-10-22T12:23:59.237Z,160
2017-10-22T12:25:21.816Z,175
2017-10-22T12:26:44.417Z,195
2017-10-22T12:28:06.966Z,215
2017-10-22T12:29:29.577Z,240
2017-10-22T12:30:51.490Z,270
2017-10-22T12:32:14.093Z,235
2017-10-22T12:33:36.322Z,205
2017-10-22T12:34:58.645Z,195
2017-10-22T12:36:20.911Z,225
2017-10-22T12:37:43.179Z,225
2017-10-22T12:39:05.732Z,180
2017-10-22T12:40:27.974Z,180
2017-10-22T12:41:50.240Z,200
2017-10-22T12:43:12.913Z,230
2017-10-22T12:44:35.525Z,240
2017-10-22T12:45:58.174Z,235
2017-10-22T12:47:20.417Z,220
2017-10-22T12:48:43.055Z,210
2017-10-22T12:50:05.629Z,205
2017-10-22T12:51:27.584Z,200
2017-10-22T12:52:50.105Z,195
2017-10-22T12:54:12.714Z,190
2017-10-22T12:55:35.267Z,185
2017-10-22T12:56:57.871Z,170
2017-10-22T12:58:20.541Z,150
2017-10-22T12:59:43.102Z,155
2017-10-22T13:01:05.661Z,150
2017-10-22T13:02:28.273Z,160
2017-10-22T13:03:49.862Z,160
2017-10-22T13:05:12.105Z,150
2017-10-22T13:06:33.724Z,155
2017-10-22T13:07:56.245Z,155
2017-10-22T13:09:18.995Z,150
2017-10-22T13:10:41.212Z,160
2017-10-22T13:12:03.458Z,140
2017-10-22T13:13:25.681Z,125
2017-10-22T13:14:47.926Z,110
2017-10-22T13:16:10.244Z,100
2017-10-22T13:17:32.456Z,115
2017-10-22T13:18:54.671Z,130
2017-10-22T13:20:16.984Z,125
2017-10-22T13:21:39.221Z,135
2017-10-22T13:23:01.431Z,140
2017-10-22T13:24:23.663Z,130
2017-10-22T13:25:46.327Z,115
2017-10-22T13:27:08.218Z,105
2017-10-22T13:28:30.787Z,95
2017-10-22T13:29:53.503Z,100
2017-10-22T13:31:15.753Z,95
2017-10-22T13:32:38.296Z,110
2017-10-22T13:34:00.832Z,120
2017-10-22T13:35:22.715Z,115
2017-10-22T13:36:45.270Z,170
2017-10-22T13:38:07.152Z,190
2017-10-22T13:39:29.674Z,190
2017-10-22T13:40:52.233Z,190
2017-10-22T13:42:14.762Z,170
2017-10-22T13:43:36.693Z,160
2017-10-22T13:44:58.906Z,150
2017-10-22T13:46:21.505Z,155
2017-10-22T13:47:43.703Z,160
2017-10-22T13:49:06.384Z,150
2017-10-22T13:50:28.956Z,150
2017-10-22T13:51:51.525Z,140
2017-10-22T13:53:13.797Z,140
2017-10-22T13:54:35.825Z,135
2017-10-22T13:55:58.448Z,130
2017-10-22T13:57:21.013Z,115
2017-10-22T13:58:43.593Z,115
2017-10-22T14:00:06.192Z,110
2017-10-22T14:01:28.436Z,110
2017-10-22T14:02:51.024Z,105
2017-10-22T14:04:13.572Z,110
2017-10-22T14:05:35.809Z,120
2017-10-22T14:06:58.403Z,125
2017-10-22T14:08:20.921Z,130
2017-10-22T14:09:43.266Z,135
2017-10-22T14:11:05.934Z,135
2017-10-22T14:12:28.472Z,130
2017-10-22T14:13:50.393Z,120
2017-10-22T14:15:12.964Z,130
2017-10-22T14:16:35.492Z,125
2017-10-22T14:17:57.393Z,135
2017-10-22T14:19:19.712Z,140
2017-10-22T14:20:42.271Z,135
2017-10-22T14:22:04.547Z,130
2017-10-22T14:23:27.206Z,125
2017-10-22T14:24:49.372Z,125
2017-10-22T14:26:11.585Z,120
2017-10-22T14:27:33.793Z,130
2017-10-22T14:28:56.373Z,120
2017-10-22T14:30:18.934Z,120
2017-10-22T14:31:41.157Z,130
2017-10-22T14:33:03.695Z,130
2017-10-22T14:34:26.225Z,120
2017-10-22T14:35:48.506Z,115
2017-10-22T14:37:10.805Z,95
2017-10-22T14:38:33.115Z,95
2017-10-22T14:39:55.338Z,85
2017-10-22T14:41:17.551Z,75
2017-10-22T14:42:39.797Z,55
2017-10-22T14:44:02.459Z,70
2017-10-22T14:45:24.687Z,70
2017-10-22T14:46:47.292Z,70
2017-10-22T14:48:09.848Z,65
2017-10-22T14:49:32.098Z,75
2017-10-22T14:50:54.687Z,85
2017-10-22T14:52:16.948Z,80
2017-10-22T14:53:39.144Z,85
2017-10-22T14:55:01.001Z,90
2017-10-22T14:56:23.276Z,85
2017-10-22T14:57:45.815Z,75
2017-10-22T14:59:08.355Z,75
2017-10-22T15:00:30.244Z,80
2017-10-22T15:01:52.800Z,80
2017-10-22T15:03:15.407Z,70
2017-10-22T15:04:37.944Z,65
2017-10-22T15:05:59.913Z,60
2017-10-22T15:07:22.146Z,55
2017-10-22T15:08:44.860Z,35
2017-10-22T15:10:07.149Z,25
2017-10-22T15:11:29.764Z,20
2017-10-22T15:12:52.113Z,25
2017-10-22T15:14:14.835Z,25
2017-10-22T15:15:37.620Z,20
2017-10-22T15:17:00.155Z,20
2017-10-22T15:18:22.729Z,20
2017-10-22T15:19:45.331Z,20
2017-10-22T15:21:07.985Z,25
2017-10-22T15:22:30.425Z,25
2017-10-22T15:23:52.647Z,30
2017-10-22T15:25:15.244Z,30
2017-10-22T15:26:37.410Z,25
2017-10-22T15:28:00.016Z,15
2017-10-22T15:29:22.277Z,15
2017-10-22T15:30:44.754Z,15
2017-10-22T15:32:07.313Z,15
2017-10-22T15:33:29.909Z,10
2017-10-22T15:34:52.474Z,10
2017-10-22T15:36:15.059Z,10
2017-10-22T15:37:37.818Z,10
2017-10-22T15:39:00.379Z,10
2017-10-22T15:40:22.316Z,5
2017-10-22T15:41:44.545Z,5
2017-10-22T15:43:06.755Z,5
2017-10-22T15:44:29.418Z,10
2017-10-22T15:45:52.076Z,10
2017-10-22T15:47:14.676Z,5
2017-10-22T15:48:37.251Z,5
2017-10-22T15:49:59.476Z,5
2017-10-22T15:51:21.390Z,10
2017-10-22T15:52:43.255Z,10
2017-10-22T15:54:05.826Z,10
2017-10-22T15:55:28.034Z,10
2017-10-22T15:56:50.574Z,10
2017-10-22T15:58:13.189Z,10
2017-10-22T15:59:35.413Z,10
2017-10-22T16:00:57.961Z,10
2017-10-22T16:02:20.207Z,5
2017-10-22T16:03:42.798Z,5
2017-10-22T16:05:05.403Z,5
2017-10-22T16:06:27.653Z,5
2017-10-22T16:07:49.887Z,0
2017-10-22T16:09:11.779Z,0
2017-10-22T16:10:34.403Z,5
2017-10-22T16:11:57.156Z,5
2017-10-22T16:13:19.406Z,5
2017-10-22T16:14:41.889Z,5
2017-10-22T16:16:04.476Z,5
2017-10-22T16:17:27.043Z,5
2017-10-22T16:18:49.454Z,5
2017-10-22T16:20:11.997Z,0
2017-10-22T16:21:34.569Z,0
2017-10-22T16:22:57.124Z,0
2017-10-22T16:24:19.830Z,0
2017-10-22T16:25:42.405Z,0
2017-10-22T16:27:04.739Z,0
2017-10-22T16:28:27.309Z,0
2017-10-22T16:29:49.625Z,0
2017-10-22T16:31:11.851Z,0
2017-10-22T16:32:33.796Z,0
2017-10-22T16:33:55.991Z,0
2017-10-22T16:35:18.564Z,0
2017-10-22T16:36:41.178Z,0
2017-10-22T16:38:03.724Z,0
2017-10-22T16:39:26.287Z,0
2017-10-22T16:40:48.889Z,0
2017-10-22T16:42:11.095Z,0
2017-10-22T16:43:33.685Z,0
2017-10-22T16:44:56.236Z,0
2017-10-22T16:46:18.911Z,0
2017-10-22T16:47:41.547Z,0
2017-10-22T16:49:03.747Z,0
2017-10-22T16:50:26.296Z,0
2017-10-22T16:51:48.857Z,0
2017-10-22T16:53:10.777Z,0
2017-10-22T16:54:33.025Z,0
2017-10-22T16:57:21.938Z,0
2017-10-22T16:58:44.777Z,0
2017-10-22T17:02:20.430Z,0
2017-10-22T17:05:43.217Z,0
2017-10-22T17:07:06.438Z,0
2017-10-22T17:09:11.510Z,0
2017-10-22T17:10:34.129Z,0
2017-10-22T17:11:56.689Z,0
2017-10-22T17:13:47.674Z,0
2017-10-22T17:15:13.461Z,0
2017-10-22T17:17:20.675Z,0
2017-10-22T17:18:42.612Z,0
2017-10-22T17:20:05.379Z,0
2017-10-22T17:21:28.026Z,0
2017-10-22T17:22:50.836Z,0
2017-10-22T17:24:13.778Z,0
2017-10-22T17:25:36.069Z,0
2017-10-22T17:26:58.456Z,0
2017-10-22T17:28:21.023Z,0
2017-10-22T17:30:15.710Z,0
2017-10-22T17:31:37.960Z,0
2017-10-22T17:32:59.931Z,0
2017-10-22T17:34:22.618Z,0
2017-10-22T17:35:44.993Z,0
2017-10-22T17:37:07.587Z,0
2017-10-22T17:38:30.408Z,0
2017-10-22T17:39:53.191Z,0
2017-10-22T17:41:15.463Z,0
2017-10-22T17:42:38.098Z,0
2017-10-22T17:44:00.147Z,0
2017-10-22T17:45:22.579Z,0
2017-10-22T17:46:44.925Z,0
2017-10-22T17:48:07.282Z,0
2017-10-22T17:49:29.676Z,0
2017-10-22T17:51:37.090Z,0
2017-10-22T17:53:05.114Z,0
2017-10-22T17:54:40.425Z,0
2017-10-22T17:57:01.737Z,0
2017-10-22T17:58:38.965Z,0
2017-10-22T18:00:07.738Z,0
2017-10-22T18:01:35.714Z,0
2017-10-22T18:03:37.109Z,0
2017-10-22T18:05:13.653Z,0
2017-10-22T18:06:48.431Z,0
2017-10-22T18:08:22.779Z,0
2017-10-22T18:09:48.112Z,0
2017-10-22T18:11:49.022Z,0
2017-10-22T18:13:12.430Z,0
2017-10-22T18:15:01.016Z,0
2017-10-22T18:16:24.646Z,0
2017-10-22T18:18:12.833Z,0
2017-10-22T18:19:54.659Z,0
2017-10-22T18:21:17.317Z,0
2017-10-22T18:22:48.084Z,0
2017-10-22T18:24:10.460Z,0
2017-10-22T18:25:32.778Z,0
2017-10-22T18:27:21.577Z,0
2017-10-22T18:29:22.249Z,0
2017-10-22T18:30:44.187Z,0
2017-10-22T18:32:19.788Z,0
2017-10-22T18:33:42.551Z,0
2017-10-22T18:35:04.855Z,0
2017-10-22T18:36:27.628Z,0
2017-10-22T18:37:49.917Z,0
2017-10-22T18:39:12.557Z,0
2017-10-22T18:42:29.175Z,0
2017-10-22T18:43:51.501Z,0
2017-10-22T18:45:35.244Z,0
2017-10-22T18:46:58.249Z,0
2017-10-22T18:48:20.856Z,0
2017-10-22T18:49:49.073Z,0
2017-10-22T18:51:15.861Z,0
2017-10-22T18:52:37.834Z,0
2017-10-22T18:54:00.353Z,0
2017-10-22T18:55:25.729Z,0
2017-10-22T18:56:48.085Z,0
2017-10-22T18:58:10.463Z,0
2017-10-22T18:59:58.609Z,0
2017-10-22T19:01:21.222Z,0
2017-10-22T19:03:00.337Z,0
2017-10-22T19:04:29.210Z,0
2017-10-22T19:05:51.516Z,0
2017-10-22T19:07:20.446Z,0
2017-10-22T19:08:49.955Z,0
2017-10-22T19:10:11.933Z,0
2017-10-22T19:12:13.326Z,0
2017-10-22T19:13:36.195Z,0
2017-10-22T19:14:58.579Z,0
2017-10-22T19:16:33.916Z,0
2017-10-22T19:17:57.672Z,0
2017-10-22T19:19:20.269Z,0
2017-10-22T19:20:45.603Z,0
2017-10-22T19:22:07.865Z,0
2017-10-22T19:23:30.128Z,0
2017-10-22T19:24:52.866Z,0
2017-10-22T19:26:15.175Z,0
2017-10-22T19:27:37.773Z,0
2017-10-22T19:29:00.364Z,0
2017-10-22T19:30:22.996Z,0
2017-10-22T19:31:45.250Z,0
2017-10-22T19:33:07.826Z,0
2017-10-22T19:34:30.333Z,0
2017-10-22T19:35:52.747Z,0
2017-10-22T19:37:15.343Z,0
2017-10-22T19:38:37.925Z,0
2017-10-22T19:40:00.543Z,0
2017-10-22T19:41:22.445Z,0
2017-10-22T19:42:45.031Z,0
2017-10-22T19:44:07.008Z,0
2017-10-22T19:45:29.326Z,0
2017-10-22T19:46:51.207Z,0
2017-10-22T19:48:13.803Z,0
2017-10-22T19:49:36.354Z,0
2017-10-22T19:51:28.000Z,0
2017-10-22T19:52:50.602Z,0
2017-10-22T19:54:12.824Z,0
2017-10-22T19:55:35.370Z,0
2017-10-22T19:56:57.006Z,0
2017-10-22T19:58:19.219Z,0
2017-10-22T19:59:41.623Z,0
2017-10-22T20:01:04.154Z,0
2017-10-22T20:02:26.684Z,0